createdAt,value
2023-04-22T00:02:14.732Z,55.40
2023-04-22T00:04:42.943Z,55.40
2023-04-22T00:07:13.186Z,55.50
2023-04-22T00:09:41.250Z,55.60
2023-04-22T00:12:11.966Z,55.60
2023-04-22T00:14:40.051Z,55.60
2023-04-22T00:17:08.786Z,55.60
2023-04-22T00:19:37.493Z,55.70
2023-04-22T00:22:06.231Z,55.80
2023-04-22T00:24:36.111Z,55.70
2023-04-22T00:27:04.422Z,55.80
2023-04-22T00:29:32.950Z,55.90
2023-04-22T00:32:01.018Z,55.90
2023-04-22T00:34:29.556Z,55.90
2023-04-22T00:36:58.281Z,56.00
2023-04-22T00:39:26.396Z,56.10
2023-04-22T00:41:57.235Z,56.20
2023-04-22T00:44:26.525Z,56.30
2023-04-22T00:46:55.165Z,56.30
2023-04-22T00:49:24.146Z,56.30
2023-04-22T00:51:52.205Z,56.40
2023-04-22T00:54:20.811Z,56.40
2023-04-22T00:56:49.373Z,56.50
2023-04-22T00:59:19.369Z,57.30
2023-04-22T01:01:48.181Z,56.70
2023-04-22T01:04:16.606Z,56.80
2023-04-22T01:06:45.427Z,56.80
2023-04-22T01:09:14.363Z,56.90
2023-04-22T01:11:43.795Z,57.00
2023-04-22T01:14:11.867Z,57.00
2023-04-22T01:16:43.999Z,57.10
2023-04-22T01:19:13.434Z,57.30
2023-04-22T01:21:45.822Z,57.30
2023-04-22T01:24:15.901Z,57.30
2023-04-22T01:26:44.324Z,57.40
2023-04-22T01:29:13.054Z,57.30
2023-04-22T01:31:41.418Z,57.40
2023-04-22T01:34:10.020Z,57.50
2023-04-22T01:36:38.624Z,57.50
2023-04-22T01:39:07.913Z,57.60
2023-04-22T01:41:38.211Z,58.30
2023-04-22T01:44:06.270Z,57.70
2023-04-22T01:46:35.312Z,57.70
2023-04-22T01:49:03.970Z,57.80
2023-04-22T01:51:32.910Z,57.90
2023-04-22T01:54:03.935Z,58.00
2023-04-22T01:56:32.470Z,58.00
2023-04-22T01:59:02.060Z,58.10
2023-04-22T02:01:30.714Z,58.40
2023-04-22T02:03:58.837Z,58.30
2023-04-22T02:06:27.955Z,58.30
2023-04-22T02:08:56.503Z,58.40
2023-04-22T02:11:24.567Z,58.40
2023-04-22T02:13:53.095Z,58.50
2023-04-22T02:16:22.623Z,58.50
2023-04-22T02:18:51.309Z,58.60
2023-04-22T02:21:19.388Z,58.50
2023-04-22T02:23:48.009Z,58.60
2023-04-22T02:26:16.542Z,58.70
2023-04-22T02:28:45.084Z,58.70
2023-04-22T02:31:13.726Z,58.80
2023-04-22T02:33:43.149Z,58.90
2023-04-22T02:36:11.923Z,58.90
2023-04-22T02:38:40.076Z,58.90
2023-04-22T02:41:08.652Z,58.90
2023-04-22T02:43:37.172Z,59.00
2023-04-22T02:46:05.279Z,59.20
2023-04-22T02:48:33.833Z,59.40
2023-04-22T02:51:03.342Z,59.40
2023-04-22T02:53:31.889Z,59.40
2023-04-22T02:56:00.563Z,59.40
2023-04-22T02:58:29.202Z,59.50
2023-04-22T03:00:58.157Z,59.50
2023-04-22T03:03:26.736Z,59.50
2023-04-22T03:05:55.530Z,59.50
2023-04-22T03:08:26.909Z,59.50
2023-04-22T03:10:55.428Z,59.60
2023-04-22T03:13:23.464Z,59.60
2023-04-22T03:15:52.001Z,59.70
2023-04-22T03:18:20.081Z,59.70
2023-04-22T03:20:48.740Z,59.70
2023-04-22T03:23:17.349Z,59.70
2023-04-22T03:25:46.831Z,59.70
2023-04-22T03:28:15.796Z,59.70
2023-04-22T03:30:43.892Z,59.60
2023-04-22T03:33:13.360Z,59.70
2023-04-22T03:35:41.447Z,59.60
2023-04-22T03:38:09.991Z,59.50
2023-04-22T03:40:38.600Z,59.60
2023-04-22T03:43:08.567Z,59.60
2023-04-22T03:45:37.045Z,59.60
2023-04-22T03:48:05.625Z,59.60
2023-04-22T03:50:34.949Z,59.60
2023-04-22T03:53:02.985Z,59.70
2023-04-22T03:55:31.502Z,59.60
2023-04-22T03:58:00.361Z,59.70
2023-04-22T04:00:30.311Z,59.70
2023-04-22T04:02:59.009Z,59.60
2023-04-22T04:05:27.758Z,59.60
2023-04-22T04:07:56.603Z,59.60
2023-04-22T04:10:25.154Z,59.60
2023-04-22T04:12:53.187Z,59.40
2023-04-22T04:15:21.924Z,59.40
2023-04-22T04:17:52.151Z,59.30
2023-04-22T04:20:20.509Z,59.40
2023-04-22T04:22:49.048Z,59.40
2023-04-22T04:25:18.347Z,59.50
2023-04-22T04:27:46.925Z,59.50
2023-04-22T04:30:16.406Z,59.50
2023-04-22T04:32:46.166Z,59.40
2023-04-22T04:35:16.548Z,59.40
2023-04-22T04:37:45.644Z,59.40
2023-04-22T04:40:14.232Z,59.50
2023-04-22T04:42:42.481Z,59.50
2023-04-22T04:45:11.753Z,59.50
2023-04-22T04:47:40.352Z,59.50
2023-04-22T04:50:09.784Z,59.50
2023-04-22T04:52:39.221Z,59.50
2023-04-22T04:55:08.228Z,59.50
2023-04-22T04:57:38.382Z,59.50
2023-04-22T05:00:08.873Z,59.50
2023-04-22T05:02:37.824Z,59.50
2023-04-22T05:05:06.723Z,59.50
2023-04-22T05:07:35.356Z,59.50
2023-04-22T05:10:05.552Z,59.50
2023-04-22T05:12:34.251Z,59.50
2023-04-22T05:15:02.841Z,59.50
2023-04-22T05:17:31.721Z,59.50
2023-04-22T05:19:59.796Z,59.50
2023-04-22T05:22:27.921Z,59.50
2023-04-22T05:24:56.042Z,59.50
2023-04-22T05:27:26.168Z,59.50
2023-04-22T05:29:54.719Z,59.60
2023-04-22T05:32:23.570Z,59.60
2023-04-22T05:34:51.672Z,59.50
2023-04-22T05:37:20.295Z,59.50
2023-04-22T05:39:48.347Z,59.50
2023-04-22T05:42:16.883Z,59.50
2023-04-22T05:44:46.318Z,59.50
2023-04-22T05:47:14.924Z,59.60
2023-04-22T05:49:43.459Z,59.60
2023-04-22T05:52:12.024Z,59.60
2023-04-22T05:54:40.691Z,59.70
2023-04-22T05:57:09.329Z,59.60
2023-04-22T05:59:37.951Z,59.60
2023-04-22T06:02:07.565Z,59.60
2023-04-22T06:04:37.771Z,59.60
2023-04-22T06:07:06.453Z,59.60
2023-04-22T06:09:35.032Z,59.50
2023-04-22T06:12:03.617Z,59.60
2023-04-22T06:14:31.645Z,59.60
2023-04-22T06:17:00.222Z,59.50
2023-04-22T06:19:30.340Z,59.60
2023-04-22T06:21:58.399Z,59.50
2023-04-22T06:24:26.925Z,59.60
2023-04-22T06:26:55.021Z,59.60
2023-04-22T06:29:23.561Z,59.50
2023-04-22T06:31:52.200Z,59.50
2023-04-22T06:34:20.352Z,59.50
2023-04-22T06:36:50.263Z,60.10
2023-04-22T06:39:18.782Z,59.50
2023-04-22T06:41:46.825Z,59.40
2023-04-22T06:44:15.357Z,59.50
2023-04-22T06:46:43.462Z,59.50
2023-04-22T06:49:11.987Z,59.50
2023-04-22T06:51:40.035Z,59.50
2023-04-22T06:54:09.909Z,59.50
2023-04-22T06:56:38.629Z,59.50
2023-04-22T06:59:07.757Z,59.50
2023-04-22T07:01:36.371Z,59.50
2023-04-22T07:04:04.573Z,59.40
2023-04-22T07:06:33.099Z,59.40
2023-04-22T07:09:01.474Z,59.40
2023-04-22T07:11:31.519Z,59.50
2023-04-22T07:13:59.801Z,59.40
2023-04-22T07:16:28.592Z,59.50
2023-04-22T07:18:57.304Z,59.30
2023-04-22T07:21:25.407Z,59.30
2023-04-22T07:23:53.483Z,59.30
2023-04-22T07:26:21.842Z,59.30
2023-04-22T07:28:51.492Z,59.30
2023-04-22T07:31:19.596Z,59.40
2023-04-22T07:33:48.082Z,59.40
2023-04-22T07:36:16.243Z,59.30
2023-04-22T07:38:44.318Z,59.30
2023-04-22T07:41:12.410Z,59.30
2023-04-22T07:43:40.472Z,59.30
2023-04-22T07:46:09.975Z,59.30
2023-04-22T07:48:38.110Z,59.40
2023-04-22T07:51:06.604Z,59.30
2023-04-22T07:53:34.690Z,59.30
2023-04-22T07:56:03.579Z,59.30
2023-04-22T07:58:31.638Z,59.30
2023-04-22T08:00:59.698Z,59.40
2023-04-22T08:03:29.427Z,59.40
2023-04-22T08:05:58.378Z,59.40
2023-04-22T08:08:27.042Z,59.40
2023-04-22T08:10:55.093Z,60.10
2023-04-22T08:13:23.169Z,59.40
2023-04-22T08:15:51.305Z,59.40
2023-04-22T08:18:19.492Z,59.40
2023-04-22T08:20:48.989Z,59.50
2023-04-22T08:23:17.052Z,59.50
2023-04-22T08:25:45.217Z,59.50
2023-04-22T08:28:13.272Z,59.40
2023-04-22T08:30:41.394Z,59.40
2023-04-22T08:33:09.571Z,59.30
2023-04-22T08:35:37.969Z,59.30
2023-04-22T08:38:07.444Z,59.30
2023-04-22T08:40:36.166Z,59.20
2023-04-22T08:43:05.153Z,59.30
2023-04-22T08:45:33.711Z,59.20
2023-04-22T08:48:03.249Z,59.10
2023-04-22T08:50:32.953Z,59.10
2023-04-22T08:53:01.067Z,59.00
2023-04-22T08:55:31.070Z,59.00
2023-04-22T08:58:01.609Z,60.20
2023-04-22T09:00:29.840Z,58.90
2023-04-22T09:03:00.973Z,58.80
2023-04-22T09:05:30.539Z,58.80
2023-04-22T09:07:59.055Z,58.90
2023-04-22T09:10:28.469Z,58.80
2023-04-22T09:12:58.417Z,58.80
2023-04-22T09:15:27.804Z,58.80
2023-04-22T09:17:56.836Z,58.80
2023-04-22T09:20:28.926Z,58.80
2023-04-22T09:22:59.095Z,58.90
2023-04-22T09:25:28.885Z,58.80
2023-04-22T09:28:00.136Z,58.90
2023-04-22T09:30:30.035Z,58.90
2023-04-22T09:32:59.559Z,58.80
2023-04-22T09:35:29.231Z,58.80
2023-04-22T09:37:57.505Z,58.90
2023-04-22T09:40:26.044Z,58.80
2023-04-22T09:42:56.061Z,58.80
2023-04-22T09:45:33.340Z,58.90
2023-04-22T09:48:04.306Z,58.80
2023-04-22T09:50:32.366Z,58.80
2023-04-22T09:53:02.733Z,58.80
2023-04-22T09:55:33.210Z,58.70
2023-04-22T09:58:07.912Z,58.70
2023-04-22T10:00:41.188Z,58.70
2023-04-22T10:03:10.734Z,58.70
2023-04-22T10:05:39.371Z,58.60
2023-04-22T10:08:08.725Z,58.40
2023-04-22T10:10:37.871Z,58.30
2023-04-22T10:13:06.904Z,58.30
2023-04-22T10:15:38.848Z,58.20
2023-04-22T10:18:09.754Z,58.10
2023-04-22T10:20:39.003Z,58.00
2023-04-22T10:23:12.978Z,58.00
2023-04-22T10:25:41.451Z,57.90
2023-04-22T10:28:11.116Z,57.70
2023-04-22T10:30:41.136Z,57.70
2023-04-22T10:33:39.948Z,57.70
2023-04-22T10:36:16.571Z,57.40
2023-04-22T10:39:22.206Z,57.20
2023-04-22T10:42:10.488Z,57.30
2023-04-22T10:44:52.814Z,57.00
2023-04-22T10:47:30.555Z,57.00
2023-04-22T10:50:21.202Z,56.80
2023-04-22T10:52:51.671Z,55.90
2023-04-22T10:55:20.307Z,56.40
2023-04-22T10:57:50.015Z,56.40
2023-04-22T11:00:53.285Z,56.50
2023-04-22T11:03:30.135Z,55.50
2023-04-22T11:06:18.248Z,55.70
2023-04-22T11:08:47.540Z,54.90
2023-04-22T11:11:17.685Z,55.50
2023-04-22T11:13:47.513Z,55.20
2023-04-22T11:16:15.729Z,55.30
2023-04-22T11:18:48.796Z,54.80
2023-04-22T11:21:17.281Z,54.40
2023-04-22T11:23:52.337Z,54.50
2023-04-22T11:26:33.708Z,54.10
2023-04-22T11:29:01.819Z,54.10
2023-04-22T11:31:30.022Z,54.30
2023-04-22T11:34:01.787Z,54.40
2023-04-22T11:36:30.040Z,54.10
2023-04-22T11:38:58.290Z,53.80
2023-04-22T11:41:26.411Z,54.00
2023-04-22T11:43:55.615Z,53.90
2023-04-22T11:46:30.412Z,53.60
2023-04-22T11:49:18.271Z,53.20
2023-04-22T11:51:56.431Z,52.80
2023-04-22T11:54:32.537Z,52.40
2023-04-22T11:57:04.419Z,52.50
2023-04-22T11:59:32.530Z,52.20
2023-04-22T12:02:00.697Z,52.20
2023-04-22T12:04:30.152Z,51.40
2023-04-22T12:06:58.529Z,51.40
2023-04-22T12:09:26.850Z,51.20
2023-04-22T12:11:54.949Z,50.30
2023-04-22T12:14:32.628Z,50.80
2023-04-22T12:17:04.298Z,50.50
2023-04-22T12:19:33.754Z,51.10
2023-04-22T12:22:02.231Z,51.50
2023-04-22T12:24:31.126Z,51.50
2023-04-22T12:26:59.684Z,51.30
2023-04-22T12:29:33.122Z,51.50
2023-04-22T12:32:01.573Z,51.50
2023-04-22T12:34:29.651Z,51.60
2023-04-22T12:36:59.836Z,51.40
2023-04-22T12:39:27.926Z,50.50
2023-04-22T12:41:55.985Z,50.60
2023-04-22T12:44:25.160Z,50.60
2023-04-22T12:46:53.656Z,50.90
2023-04-22T12:49:21.854Z,51.20
2023-04-22T12:51:50.145Z,50.00
2023-04-22T12:54:20.448Z,50.40
2023-04-22T12:56:49.401Z,50.40
2023-04-22T12:59:17.466Z,49.80
2023-04-22T13:01:45.648Z,49.90
2023-04-22T13:04:13.933Z,49.90
2023-04-22T13:06:44.244Z,49.70
2023-04-22T13:09:13.014Z,49.30
2023-04-22T13:11:42.497Z,48.40
2023-04-22T13:14:11.427Z,48.50
2023-04-22T13:16:39.733Z,48.90
2023-04-22T13:19:07.951Z,48.70
2023-04-22T13:21:36.308Z,48.60
2023-04-22T13:24:04.469Z,48.70
2023-04-22T13:26:32.569Z,48.30
2023-04-22T13:29:02.887Z,48.60
2023-04-22T13:31:31.179Z,48.60
2023-04-22T13:33:59.257Z,48.60
2023-04-22T13:36:27.854Z,48.30
2023-04-22T13:38:56.066Z,47.70
2023-04-22T13:41:24.092Z,48.00
2023-04-22T13:43:54.405Z,47.80
2023-04-22T13:46:23.962Z,47.90
2023-04-22T13:48:52.113Z,47.70
2023-04-22T13:51:20.265Z,47.80
2023-04-22T13:53:48.337Z,47.30
2023-04-22T13:56:16.440Z,46.50
2023-04-22T13:58:44.519Z,46.60
2023-04-22T14:01:12.620Z,46.40
2023-04-22T14:03:42.196Z,46.40
2023-04-22T14:06:10.888Z,46.70
2023-04-22T14:08:39.536Z,46.70
2023-04-22T14:11:08.745Z,46.40
2023-04-22T14:13:37.321Z,46.10
2023-04-22T14:16:09.759Z,45.60
2023-04-22T14:18:39.465Z,45.00
2023-04-22T14:21:10.392Z,44.40
2023-04-22T14:23:39.573Z,45.00
2023-04-22T14:26:08.529Z,45.20
2023-04-22T14:28:39.048Z,44.60
2023-04-22T14:31:07.365Z,44.60
2023-04-22T14:33:35.593Z,44.50
2023-04-22T14:36:03.702Z,44.50
2023-04-22T14:38:33.174Z,44.10
2023-04-22T14:41:01.216Z,44.20
2023-04-22T14:43:29.834Z,43.60
2023-04-22T14:45:59.094Z,44.00
2023-04-22T14:48:30.837Z,43.40
2023-04-22T14:50:59.879Z,41.80
2023-04-22T14:53:28.181Z,42.20
2023-04-22T14:55:57.655Z,41.70
2023-04-22T14:58:27.083Z,42.20
2023-04-22T15:00:55.149Z,41.90
2023-04-22T15:03:23.911Z,42.10
2023-04-22T15:05:52.973Z,41.30
2023-04-22T15:08:21.626Z,41.70
2023-04-22T15:10:50.155Z,40.10
2023-04-22T15:13:20.015Z,40.70
2023-04-22T15:15:48.614Z,40.40
2023-04-22T15:18:17.209Z,40.20
2023-04-22T15:20:45.545Z,39.20
2023-04-22T15:23:14.061Z,39.10
2023-04-22T15:25:42.664Z,39.30
2023-04-22T15:28:11.237Z,39.00
2023-04-22T15:30:40.743Z,38.90
2023-04-22T15:33:09.311Z,38.40
2023-04-22T15:35:37.880Z,39.10
2023-04-22T15:38:06.933Z,38.80
2023-04-22T15:40:35.453Z,39.60
2023-04-22T15:43:04.085Z,39.50
2023-04-22T15:45:32.193Z,39.50
2023-04-22T15:48:02.167Z,39.40
2023-04-22T15:50:30.283Z,39.50
2023-04-22T15:52:58.484Z,39.60
2023-04-22T15:55:26.597Z,38.80
2023-04-22T15:57:55.170Z,39.00
2023-04-22T16:00:23.744Z,39.10
2023-04-22T16:02:55.855Z,39.50
2023-04-22T16:05:25.982Z,39.90
2023-04-22T16:07:55.006Z,40.00
2023-04-22T16:10:23.745Z,40.80
2023-04-22T16:12:51.907Z,40.50
2023-04-22T16:15:20.569Z,41.00
2023-04-22T16:17:49.320Z,41.10
2023-04-22T16:20:17.869Z,41.00
2023-04-22T16:22:47.280Z,41.50
2023-04-22T16:25:15.670Z,41.70
2023-04-22T16:27:43.707Z,41.70
2023-04-22T16:30:15.608Z,41.80
2023-04-22T16:32:44.288Z,42.40
2023-04-22T16:35:12.804Z,42.70
2023-04-22T16:37:41.435Z,42.30
2023-04-22T16:40:11.682Z,43.00
2023-04-22T16:42:40.234Z,43.50
2023-04-22T16:45:08.963Z,43.60
2023-04-22T16:47:37.501Z,44.10
2023-04-22T16:50:06.369Z,44.50
2023-04-22T16:52:35.125Z,44.90
2023-04-22T16:55:03.845Z,46.10
2023-04-22T16:57:33.254Z,46.30
2023-04-22T17:00:01.784Z,46.70
2023-04-22T17:02:30.881Z,46.30
2023-04-22T17:05:01.619Z,46.20
2023-04-22T17:07:29.738Z,46.50
2023-04-22T17:09:58.326Z,47.00
2023-04-22T17:12:26.440Z,46.80
2023-04-22T17:14:55.915Z,47.30
2023-04-22T17:17:24.482Z,47.50
2023-04-22T17:19:52.552Z,47.50
2023-04-22T17:22:21.131Z,47.80
2023-04-22T17:24:49.183Z,47.80
2023-04-22T17:27:17.705Z,47.90
2023-04-22T17:29:46.572Z,47.70
2023-04-22T17:32:16.254Z,47.70
2023-04-22T17:34:44.329Z,47.80
2023-04-22T17:37:12.456Z,48.20
2023-04-22T17:39:42.357Z,48.60
2023-04-22T17:42:10.473Z,48.70
2023-04-22T17:44:38.693Z,48.60
2023-04-22T17:47:07.737Z,48.60
2023-04-22T17:49:37.285Z,48.60
2023-04-22T17:52:05.985Z,48.80
2023-04-22T17:54:34.043Z,48.80
2023-04-22T17:57:02.189Z,48.80
2023-04-22T17:59:30.216Z,48.90
2023-04-22T18:02:00.234Z,48.90
2023-04-22T18:04:29.559Z,49.00
2023-04-22T18:06:59.565Z,49.10
2023-04-22T18:09:27.950Z,49.20
2023-04-22T18:11:58.851Z,49.20
2023-04-22T18:14:27.567Z,49.20
2023-04-22T18:16:55.686Z,49.20
2023-04-22T18:19:23.831Z,49.00
2023-04-22T18:21:59.479Z,49.10
2023-04-22T18:24:30.192Z,48.80
2023-04-22T18:26:58.371Z,49.20
2023-04-22T18:29:27.224Z,49.10
2023-04-22T18:31:55.338Z,49.30
2023-04-22T18:34:23.676Z,49.40
2023-04-22T18:36:51.747Z,49.50
2023-04-22T18:39:20.278Z,49.60
2023-04-22T18:41:49.767Z,49.60
2023-04-22T18:44:19.549Z,49.50
2023-04-22T18:46:48.101Z,49.60
2023-04-22T18:49:16.176Z,49.20
2023-04-22T18:51:44.299Z,49.10
2023-04-22T18:54:12.910Z,49.50
2023-04-22T18:56:40.965Z,49.60
2023-04-22T18:59:10.400Z,49.60
2023-04-22T19:01:38.562Z,49.80
2023-04-22T19:04:08.176Z,49.80
2023-04-22T19:06:36.444Z,49.90
2023-04-22T19:09:05.336Z,49.60
2023-04-22T19:11:33.501Z,49.80
2023-04-22T19:14:03.402Z,49.90
2023-04-22T19:16:33.332Z,50.00
2023-04-22T19:19:01.432Z,50.10
2023-04-22T19:21:30.484Z,49.90
2023-04-22T19:23:59.330Z,50.00
2023-04-22T19:26:29.694Z,50.00
2023-04-22T19:28:58.257Z,50.10
2023-04-22T19:31:28.303Z,50.10
2023-04-22T19:34:04.400Z,50.10
2023-04-22T19:36:32.456Z,50.20
2023-04-22T19:39:00.973Z,50.30
2023-04-22T19:41:29.045Z,50.40
2023-04-22T19:43:59.452Z,50.50
2023-04-22T19:46:27.536Z,50.60
2023-04-22T19:48:58.454Z,50.70
2023-04-22T19:51:29.449Z,50.80
2023-04-22T19:54:02.249Z,50.70
2023-04-22T19:56:31.127Z,50.90
2023-04-22T19:59:00.535Z,50.90
2023-04-22T20:01:29.196Z,51.10
2023-04-22T20:03:59.902Z,51.20
2023-04-22T20:06:29.117Z,51.50
2023-04-22T20:08:59.451Z,51.50
2023-04-22T20:11:29.143Z,51.90
2023-04-22T20:13:57.556Z,51.50
2023-04-22T20:16:27.379Z,51.60
2023-04-22T20:18:56.095Z,51.80
2023-04-22T20:21:26.102Z,51.80
2023-04-22T20:23:57.359Z,52.00
2023-04-22T20:26:26.211Z,51.90
2023-04-22T20:28:55.158Z,51.90
2023-04-22T20:31:24.040Z,52.00
2023-04-22T20:33:52.643Z,52.10
2023-04-22T20:36:22.508Z,52.20
2023-04-22T20:38:55.354Z,52.30
2023-04-22T20:41:25.510Z,52.40
2023-04-22T20:43:53.639Z,52.40
2023-04-22T20:46:23.470Z,52.40
2023-04-22T20:48:51.681Z,52.60
2023-04-22T20:51:20.280Z,52.60
2023-04-22T20:53:49.038Z,52.70
2023-04-22T20:56:21.461Z,52.80
2023-04-22T20:58:49.542Z,53.00
2023-04-22T21:01:19.946Z,53.00
2023-04-22T21:03:53.082Z,53.20
2023-04-22T21:06:22.359Z,53.20
2023-04-22T21:08:51.644Z,53.10
2023-04-22T21:11:21.862Z,53.20
2023-04-22T21:13:51.350Z,53.30
2023-04-22T21:16:21.117Z,53.30
2023-04-22T21:18:50.569Z,53.50
2023-04-22T21:21:20.573Z,53.80
2023-04-22T21:23:49.732Z,53.60
2023-04-22T21:26:19.964Z,53.60
2023-04-22T21:28:49.795Z,53.60
2023-04-22T21:31:18.943Z,53.60
2023-04-22T21:33:47.017Z,53.60
2023-04-22T21:36:15.168Z,53.60
2023-04-22T21:38:43.797Z,53.60
2023-04-22T21:41:12.354Z,53.60
2023-04-22T21:43:41.769Z,53.60
2023-04-22T21:46:10.886Z,53.70
2023-04-22T21:48:38.924Z,53.50
2023-04-22T21:51:07.543Z,53.40
2023-04-22T21:53:36.115Z,53.40
2023-04-22T21:56:04.205Z,53.60
2023-04-22T21:58:32.734Z,53.60
2023-04-22T22:01:02.717Z,53.50
2023-04-22T22:03:32.136Z,53.50
2023-04-22T22:06:00.585Z,53.50
2023-04-22T22:08:28.718Z,53.40
2023-04-22T22:10:57.906Z,53.30
2023-04-22T22:13:26.245Z,53.50
2023-04-22T22:15:56.116Z,53.60
2023-04-22T22:18:25.551Z,53.70
2023-04-22T22:20:54.286Z,53.80
2023-04-22T22:23:23.014Z,54.00
2023-04-22T22:25:51.677Z,54.20
2023-04-22T22:28:19.739Z,54.30
2023-04-22T22:30:48.250Z,54.50
2023-04-22T22:33:16.389Z,55.00
2023-04-22T22:35:46.659Z,55.50
2023-04-22T22:38:14.734Z,56.10
2023-04-22T22:40:43.289Z,56.40
2023-04-22T22:43:12.457Z,56.90
2023-04-22T22:45:40.824Z,57.20
2023-04-22T22:48:09.438Z,57.70
2023-04-22T22:50:37.876Z,58.00
2023-04-22T22:53:07.899Z,58.20
2023-04-22T22:55:36.001Z,58.60
2023-04-22T22:58:04.564Z,58.50
2023-04-22T23:00:32.643Z,58.80
2023-04-22T23:03:00.897Z,59.10
2023-04-22T23:05:29.288Z,59.20
2023-04-22T23:07:57.348Z,59.30
2023-04-22T23:10:26.972Z,59.30
2023-04-22T23:12:55.072Z,59.50
2023-04-22T23:15:23.652Z,59.70
2023-04-22T23:17:51.792Z,60.00
2023-04-22T23:20:21.227Z,60.30
2023-04-22T23:22:52.049Z,60.50
2023-04-22T23:25:21.053Z,60.80
2023-04-22T23:27:51.292Z,60.60
2023-04-22T23:30:20.283Z,60.50
2023-04-22T23:32:49.297Z,60.70
2023-04-22T23:35:17.799Z,61.10
2023-04-22T23:37:46.858Z,61.00
2023-04-22T23:40:14.977Z,61.00
2023-04-22T23:42:43.496Z,61.10
2023-04-22T23:45:13.431Z,61.20
2023-04-22T23:47:42.425Z,61.50
2023-04-22T23:50:11.336Z,61.60
2023-04-22T23:52:41.665Z,61.50
2023-04-22T23:55:11.836Z,61.00
2023-04-22T23:57:40.818Z,60.50
